sensor_id;sensor_type;location;lat;lon;timestamp;P1;durP1;ratioP1;P2;durP2;ratioP2
12836;SDS011;6485;51.472;5.268;2022-09-16T00:01:18;4.80;;;2.50;;
12836;SDS011;6485;51.472;5.268;2022-09-16T00:03:48;8.63;;;2.70;;
12836;SDS011;6485;51.472;5.268;2022-09-16T00:06:21;7.40;;;2.73;;
12836;SDS011;6485;51.472;5.268;2022-09-16T00:08:53;6.23;;;3.00;;
12836;SDS011;6485;51.472;5.268;2022-09-16T00:11:23;6.30;;;3.07;;
12836;SDS011;6485;51.472;5.268;2022-09-16T00:13:53;5.70;;;2.80;;
12836;SDS011;6485;51.472;5.268;2022-09-16T00:16:23;6.07;;;2.63;;
12836;SDS011;6485;51.472;5.268;2022-09-16T00:18:53;7.30;;;2.83;;
12836;SDS011;6485;51.472;5.268;2022-09-16T00:21:28;6.30;;;2.77;;
12836;SDS011;6485;51.472;5.268;2022-09-16T00:23:57;7.97;;;2.70;;
12836;SDS011;6485;51.472;5.268;2022-09-16T00:26:26;6.40;;;2.90;;
12836;SDS011;6485;51.472;5.268;2022-09-16T00:28:56;10.77;;;3.00;;
12836;SDS011;6485;51.472;5.268;2022-09-16T00:31:25;6.07;;;2.87;;
12836;SDS011;6485;51.472;5.268;2022-09-16T00:33:53;8.07;;;3.57;;
12836;SDS011;6485;51.472;5.268;2022-09-16T00:36:21;4.60;;;2.60;;
12836;SDS011;6485;51.472;5.268;2022-09-16T00:38:49;5.67;;;2.80;;
12836;SDS011;6485;51.472;5.268;2022-09-16T00:41:21;5.93;;;2.80;;
12836;SDS011;6485;51.472;5.268;2022-09-16T00:43:53;9.53;;;2.97;;
12836;SDS011;6485;51.472;5.268;2022-09-16T00:46:26;7.73;;;2.80;;
12836;SDS011;6485;51.472;5.268;2022-09-16T00:49:00;5.97;;;2.83;;
12836;SDS011;6485;51.472;5.268;2022-09-16T00:51:32;6.17;;;3.00;;
12836;SDS011;6485;51.472;5.268;2022-09-16T00:54:01;4.93;;;2.90;;
12836;SDS011;6485;51.472;5.268;2022-09-16T00:56:35;5.47;;;3.20;;
12836;SDS011;6485;51.472;5.268;2022-09-16T00:59:06;4.93;;;2.70;;
12836;SDS011;6485;51.472;5.268;2022-09-16T01:01:41;7.50;;;2.83;;
12836;SDS011;6485;51.472;5.268;2022-09-16T01:04:12;6.03;;;2.87;;
12836;SDS011;6485;51.472;5.268;2022-09-16T01:06:44;5.93;;;3.20;;
12836;SDS011;6485;51.472;5.268;2022-09-16T01:09:13;4.27;;;2.87;;
12836;SDS011;6485;51.472;5.268;2022-09-16T01:11:41;4.87;;;2.70;;
12836;SDS011;6485;51.472;5.268;2022-09-16T01:14:10;4.13;;;3.00;;
12836;SDS011;6485;51.472;5.268;2022-09-16T01:16:58;6.47;;;3.00;;
12836;SDS011;6485;51.472;5.268;2022-09-16T01:19:40;5.57;;;2.90;;
12836;SDS011;6485;51.472;5.268;2022-09-16T01:22:22;5.10;;;2.63;;
12836;SDS011;6485;51.472;5.268;2022-09-16T01:25:05;5.67;;;2.77;;
12836;SDS011;6485;51.472;5.268;2022-09-16T01:27:45;4.20;;;2.90;;
12836;SDS011;6485;51.472;5.268;2022-09-16T01:30:47;4.27;;;2.67;;
12836;SDS011;6485;51.472;5.268;2022-09-16T01:33:31;5.60;;;2.60;;
12836;SDS011;6485;51.472;5.268;2022-09-16T01:36:14;4.57;;;2.97;;
12836;SDS011;6485;51.472;5.268;2022-09-16T01:38:54;6.63;;;2.83;;
12836;SDS011;6485;51.472;5.268;2022-09-16T01:41:31;7.73;;;3.13;;
12836;SDS011;6485;51.472;5.268;2022-09-16T01:44:10;3.60;;;2.70;;
12836;SDS011;6485;51.472;5.268;2022-09-16T01:46:50;6.43;;;3.10;;
12836;SDS011;6485;51.472;5.268;2022-09-16T01:49:27;7.43;;;3.10;;
12836;SDS011;6485;51.472;5.268;2022-09-16T01:52:07;5.73;;;3.07;;
12836;SDS011;6485;51.472;5.268;2022-09-16T01:54:44;4.97;;;3.00;;
12836;SDS011;6485;51.472;5.268;2022-09-16T01:57:16;5.27;;;3.03;;
12836;SDS011;6485;51.472;5.268;2022-09-16T01:59:49;4.40;;;2.87;;
12836;SDS011;6485;51.472;5.268;2022-09-16T02:02:24;5.30;;;2.50;;
12836;SDS011;6485;51.472;5.268;2022-09-16T02:04:59;7.33;;;2.83;;
12836;SDS011;6485;51.472;5.268;2022-09-16T02:07:30;7.03;;;2.60;;
12836;SDS011;6485;51.472;5.268;2022-09-16T02:10:05;6.13;;;2.73;;
12836;SDS011;6485;51.472;5.268;2022-09-16T02:12:40;5.10;;;2.40;;
12836;SDS011;6485;51.472;5.268;2022-09-16T02:15:11;4.90;;;2.40;;
12836;SDS011;6485;51.472;5.268;2022-09-16T02:17:49;8.83;;;2.27;;
12836;SDS011;6485;51.472;5.268;2022-09-16T02:20:22;10.00;;;2.73;;
12836;SDS011;6485;51.472;5.268;2022-09-16T02:22:54;4.27;;;2.50;;
12836;SDS011;6485;51.472;5.268;2022-09-16T02:25:27;9.87;;;2.50;;
12836;SDS011;6485;51.472;5.268;2022-09-16T02:27:59;3.90;;;2.40;;
12836;SDS011;6485;51.472;5.268;2022-09-16T02:30:30;4.77;;;2.37;;
12836;SDS011;6485;51.472;5.268;2022-09-16T02:33:02;7.13;;;2.40;;
12836;SDS011;6485;51.472;5.268;2022-09-16T02:35:34;3.80;;;2.10;;
12836;SDS011;6485;51.472;5.268;2022-09-16T02:38:05;6.60;;;2.13;;
12836;SDS011;6485;51.472;5.268;2022-09-16T02:40:40;6.80;;;2.43;;
12836;SDS011;6485;51.472;5.268;2022-09-16T02:43:12;5.67;;;2.73;;
12836;SDS011;6485;51.472;5.268;2022-09-16T02:45:43;4.17;;;2.70;;
12836;SDS011;6485;51.472;5.268;2022-09-16T02:48:19;3.77;;;2.40;;
12836;SDS011;6485;51.472;5.268;2022-09-16T02:50:58;5.97;;;2.70;;
12836;SDS011;6485;51.472;5.268;2022-09-16T02:53:34;6.77;;;2.50;;
12836;SDS011;6485;51.472;5.268;2022-09-16T02:56:11;3.03;;;2.50;;
12836;SDS011;6485;51.472;5.268;2022-09-16T02:58:44;5.60;;;2.43;;
12836;SDS011;6485;51.472;5.268;2022-09-16T03:01:13;8.63;;;2.47;;
12836;SDS011;6485;51.472;5.268;2022-09-16T03:03:43;4.87;;;2.27;;
12836;SDS011;6485;51.472;5.268;2022-09-16T03:06:14;7.30;;;2.50;;
12836;SDS011;6485;51.472;5.268;2022-09-16T03:08:44;5.03;;;2.97;;
12836;SDS011;6485;51.472;5.268;2022-09-16T03:11:17;7.07;;;2.80;;
12836;SDS011;6485;51.472;5.268;2022-09-16T03:14:19;6.57;;;2.30;;
12836;SDS011;6485;51.472;5.268;2022-09-16T03:17:03;5.00;;;2.33;;
12836;SDS011;6485;51.472;5.268;2022-09-16T03:19:45;3.70;;;2.40;;
12836;SDS011;6485;51.472;5.268;2022-09-16T03:22:28;6.93;;;2.43;;
12836;SDS011;6485;51.472;5.268;2022-09-16T03:25:12;5.17;;;2.53;;
12836;SDS011;6485;51.472;5.268;2022-09-16T03:27:51;4.23;;;2.27;;
12836;SDS011;6485;51.472;5.268;2022-09-16T03:30:24;7.47;;;2.57;;
12836;SDS011;6485;51.472;5.268;2022-09-16T03:32:53;3.40;;;2.60;;
12836;SDS011;6485;51.472;5.268;2022-09-16T03:35:29;5.57;;;2.40;;
12836;SDS011;6485;51.472;5.268;2022-09-16T03:38:00;3.67;;;2.60;;
12836;SDS011;6485;51.472;5.268;2022-09-16T03:40:29;7.03;;;2.60;;
12836;SDS011;6485;51.472;5.268;2022-09-16T03:43:00;5.37;;;2.30;;
12836;SDS011;6485;51.472;5.268;2022-09-16T03:45:37;3.87;;;2.20;;
12836;SDS011;6485;51.472;5.268;2022-09-16T03:48:08;5.67;;;2.23;;
12836;SDS011;6485;51.472;5.268;2022-09-16T03:50:38;7.23;;;2.87;;
12836;SDS011;6485;51.472;5.268;2022-09-16T03:53:07;3.53;;;2.17;;
12836;SDS011;6485;51.472;5.268;2022-09-16T03:55:36;4.73;;;2.50;;
12836;SDS011;6485;51.472;5.268;2022-09-16T03:58:04;5.63;;;2.23;;
12836;SDS011;6485;51.472;5.268;2022-09-16T04:00:32;4.80;;;2.27;;
12836;SDS011;6485;51.472;5.268;2022-09-16T04:03:00;3.83;;;2.03;;
12836;SDS011;6485;51.472;5.268;2022-09-16T04:05:29;5.07;;;2.00;;
12836;SDS011;6485;51.472;5.268;2022-09-16T04:07:58;5.10;;;1.90;;
12836;SDS011;6485;51.472;5.268;2022-09-16T04:10:26;6.57;;;2.10;;
12836;SDS011;6485;51.472;5.268;2022-09-16T04:12:55;6.23;;;2.27;;
12836;SDS011;6485;51.472;5.268;2022-09-16T04:15:24;4.70;;;2.40;;
12836;SDS011;6485;51.472;5.268;2022-09-16T04:17:52;5.40;;;2.20;;
12836;SDS011;6485;51.472;5.268;2022-09-16T04:20:21;6.53;;;2.10;;
12836;SDS011;6485;51.472;5.268;2022-09-16T04:22:50;6.40;;;2.10;;
12836;SDS011;6485;51.472;5.268;2022-09-16T04:25:20;10.63;;;4.10;;
12836;SDS011;6485;51.472;5.268;2022-09-16T04:27:48;3.97;;;1.97;;
12836;SDS011;6485;51.472;5.268;2022-09-16T04:30:16;6.27;;;2.13;;
12836;SDS011;6485;51.472;5.268;2022-09-16T04:32:45;8.13;;;2.30;;
12836;SDS011;6485;51.472;5.268;2022-09-16T04:35:13;3.63;;;2.00;;
12836;SDS011;6485;51.472;5.268;2022-09-16T04:37:44;6.30;;;2.20;;
12836;SDS011;6485;51.472;5.268;2022-09-16T04:40:13;2.30;;;1.80;;
12836;SDS011;6485;51.472;5.268;2022-09-16T04:42:48;6.27;;;2.00;;
12836;SDS011;6485;51.472;5.268;2022-09-16T04:45:17;4.57;;;2.00;;
12836;SDS011;6485;51.472;5.268;2022-09-16T04:47:45;4.03;;;2.30;;
12836;SDS011;6485;51.472;5.268;2022-09-16T04:50:16;3.83;;;1.67;;
12836;SDS011;6485;51.472;5.268;2022-09-16T04:52:44;3.60;;;2.03;;
12836;SDS011;6485;51.472;5.268;2022-09-16T04:55:12;3.50;;;1.60;;
12836;SDS011;6485;51.472;5.268;2022-09-16T04:57:40;4.73;;;1.80;;
12836;SDS011;6485;51.472;5.268;2022-09-16T05:00:11;4.17;;;1.80;;
12836;SDS011;6485;51.472;5.268;2022-09-16T05:02:42;3.20;;;1.67;;
12836;SDS011;6485;51.472;5.268;2022-09-16T05:05:10;2.60;;;1.50;;
12836;SDS011;6485;51.472;5.268;2022-09-16T05:07:39;3.30;;;1.73;;
12836;SDS011;6485;51.472;5.268;2022-09-16T05:10:07;4.80;;;1.60;;
12836;SDS011;6485;51.472;5.268;2022-09-16T05:12:35;5.87;;;2.70;;
12836;SDS011;6485;51.472;5.268;2022-09-16T05:15:04;1.90;;;1.40;;
12836;SDS011;6485;51.472;5.268;2022-09-16T05:17:34;4.53;;;1.80;;
12836;SDS011;6485;51.472;5.268;2022-09-16T05:20:17;5.53;;;2.07;;
12836;SDS011;6485;51.472;5.268;2022-09-16T05:22:47;4.03;;;1.70;;
12836;SDS011;6485;51.472;5.268;2022-09-16T05:25:16;5.67;;;2.00;;
12836;SDS011;6485;51.472;5.268;2022-09-16T05:27:45;4.67;;;1.97;;
12836;SDS011;6485;51.472;5.268;2022-09-16T05:30:13;6.83;;;2.30;;
12836;SDS011;6485;51.472;5.268;2022-09-16T05:32:44;4.77;;;1.80;;
12836;SDS011;6485;51.472;5.268;2022-09-16T05:35:12;3.27;;;2.17;;
12836;SDS011;6485;51.472;5.268;2022-09-16T05:37:41;7.10;;;1.90;;
12836;SDS011;6485;51.472;5.268;2022-09-16T05:40:15;4.87;;;1.70;;
12836;SDS011;6485;51.472;5.268;2022-09-16T05:42:47;4.87;;;1.80;;
12836;SDS011;6485;51.472;5.268;2022-09-16T05:45:15;3.73;;;1.80;;
12836;SDS011;6485;51.472;5.268;2022-09-16T05:47:52;3.63;;;1.50;;
12836;SDS011;6485;51.472;5.268;2022-09-16T05:50:20;3.70;;;1.40;;
12836;SDS011;6485;51.472;5.268;2022-09-16T05:52:49;3.17;;;1.70;;
12836;SDS011;6485;51.472;5.268;2022-09-16T05:55:18;5.67;;;1.90;;
12836;SDS011;6485;51.472;5.268;2022-09-16T05:57:51;3.07;;;1.90;;
12836;SDS011;6485;51.472;5.268;2022-09-16T06:00:20;2.93;;;1.80;;
12836;SDS011;6485;51.472;5.268;2022-09-16T06:02:48;5.17;;;1.50;;
12836;SDS011;6485;51.472;5.268;2022-09-16T06:05:18;4.50;;;1.50;;
12836;SDS011;6485;51.472;5.268;2022-09-16T06:07:47;4.83;;;1.93;;
12836;SDS011;6485;51.472;5.268;2022-09-16T06:10:15;4.37;;;1.90;;
12836;SDS011;6485;51.472;5.268;2022-09-16T06:12:44;3.37;;;1.83;;
12836;SDS011;6485;51.472;5.268;2022-09-16T06:15:12;3.83;;;1.73;;
12836;SDS011;6485;51.472;5.268;2022-09-16T06:17:40;2.07;;;1.70;;
12836;SDS011;6485;51.472;5.268;2022-09-16T06:20:09;6.00;;;2.30;;
12836;SDS011;6485;51.472;5.268;2022-09-16T06:22:41;8.67;;;2.20;;
12836;SDS011;6485;51.472;5.268;2022-09-16T06:25:09;3.20;;;2.00;;
12836;SDS011;6485;51.472;5.268;2022-09-16T06:27:38;4.90;;;1.73;;
12836;SDS011;6485;51.472;5.268;2022-09-16T06:30:07;3.83;;;2.00;;
12836;SDS011;6485;51.472;5.268;2022-09-16T06:32:36;4.43;;;1.97;;
12836;SDS011;6485;51.472;5.268;2022-09-16T06:35:04;2.93;;;2.20;;
12836;SDS011;6485;51.472;5.268;2022-09-16T06:37:33;4.50;;;1.80;;
12836;SDS011;6485;51.472;5.268;2022-09-16T06:40:03;3.93;;;2.10;;
12836;SDS011;6485;51.472;5.268;2022-09-16T06:42:32;4.77;;;1.80;;
12836;SDS011;6485;51.472;5.268;2022-09-16T06:45:00;2.73;;;2.27;;
12836;SDS011;6485;51.472;5.268;2022-09-16T06:47:29;4.80;;;2.03;;
12836;SDS011;6485;51.472;5.268;2022-09-16T06:49:58;3.83;;;1.97;;
12836;SDS011;6485;51.472;5.268;2022-09-16T06:52:26;6.47;;;2.13;;
12836;SDS011;6485;51.472;5.268;2022-09-16T06:54:54;5.87;;;1.83;;
12836;SDS011;6485;51.472;5.268;2022-09-16T06:57:24;3.90;;;2.00;;
12836;SDS011;6485;51.472;5.268;2022-09-16T06:59:52;3.80;;;2.10;;
12836;SDS011;6485;51.472;5.268;2022-09-16T07:02:20;4.27;;;2.20;;
12836;SDS011;6485;51.472;5.268;2022-09-16T07:04:49;3.07;;;2.17;;
12836;SDS011;6485;51.472;5.268;2022-09-16T07:07:17;6.57;;;2.30;;
12836;SDS011;6485;51.472;5.268;2022-09-16T07:09:46;3.33;;;2.20;;
12836;SDS011;6485;51.472;5.268;2022-09-16T07:12:14;4.83;;;2.50;;
12836;SDS011;6485;51.472;5.268;2022-09-16T07:14:46;7.27;;;2.40;;
12836;SDS011;6485;51.472;5.268;2022-09-16T07:17:14;4.57;;;2.30;;
12836;SDS011;6485;51.472;5.268;2022-09-16T07:19:42;2.33;;;2.00;;
12836;SDS011;6485;51.472;5.268;2022-09-16T07:22:11;5.70;;;2.27;;
12836;SDS011;6485;51.472;5.268;2022-09-16T07:24:39;5.27;;;1.73;;
12836;SDS011;6485;51.472;5.268;2022-09-16T07:27:07;4.03;;;1.90;;
12836;SDS011;6485;51.472;5.268;2022-09-16T07:29:36;7.10;;;2.20;;
12836;SDS011;6485;51.472;5.268;2022-09-16T07:32:06;7.13;;;2.20;;
12836;SDS011;6485;51.472;5.268;2022-09-16T07:34:34;2.77;;;2.17;;
12836;SDS011;6485;51.472;5.268;2022-09-16T07:37:02;6.23;;;2.27;;
12836;SDS011;6485;51.472;5.268;2022-09-16T07:39:30;5.20;;;2.50;;
12836;SDS011;6485;51.472;5.268;2022-09-16T07:41:59;3.23;;;2.10;;
12836;SDS011;6485;51.472;5.268;2022-09-16T07:44:31;3.63;;;2.27;;
12836;SDS011;6485;51.472;5.268;2022-09-16T07:47:00;5.20;;;2.47;;
12836;SDS011;6485;51.472;5.268;2022-09-16T07:49:30;3.90;;;2.40;;
12836;SDS011;6485;51.472;5.268;2022-09-16T07:51:58;8.60;;;2.53;;
12836;SDS011;6485;51.472;5.268;2022-09-16T07:54:29;3.80;;;2.30;;
12836;SDS011;6485;51.472;5.268;2022-09-16T07:56:57;4.70;;;2.57;;
12836;SDS011;6485;51.472;5.268;2022-09-16T07:59:25;5.97;;;2.63;;
12836;SDS011;6485;51.472;5.268;2022-09-16T08:01:53;5.40;;;2.27;;
12836;SDS011;6485;51.472;5.268;2022-09-16T08:04:22;4.27;;;2.60;;
12836;SDS011;6485;51.472;5.268;2022-09-16T08:06:52;8.30;;;2.40;;
12836;SDS011;6485;51.472;5.268;2022-09-16T08:09:20;4.70;;;2.53;;
12836;SDS011;6485;51.472;5.268;2022-09-16T08:12:09;4.80;;;2.30;;
12836;SDS011;6485;51.472;5.268;2022-09-16T08:14:38;4.83;;;2.50;;
12836;SDS011;6485;51.472;5.268;2022-09-16T08:17:06;4.00;;;2.30;;
12836;SDS011;6485;51.472;5.268;2022-09-16T08:19:35;5.40;;;2.63;;
12836;SDS011;6485;51.472;5.268;2022-09-16T08:22:06;3.60;;;1.97;;
12836;SDS011;6485;51.472;5.268;2022-09-16T08:24:34;5.37;;;2.17;;
12836;SDS011;6485;51.472;5.268;2022-09-16T08:27:03;4.53;;;2.20;;
12836;SDS011;6485;51.472;5.268;2022-09-16T08:29:31;4.37;;;1.93;;
12836;SDS011;6485;51.472;5.268;2022-09-16T08:31:59;4.87;;;2.40;;
12836;SDS011;6485;51.472;5.268;2022-09-16T08:34:28;3.10;;;2.00;;
12836;SDS011;6485;51.472;5.268;2022-09-16T08:36:56;3.53;;;2.07;;
12836;SDS011;6485;51.472;5.268;2022-09-16T08:39:26;5.10;;;2.10;;
12836;SDS011;6485;51.472;5.268;2022-09-16T08:42:06;4.53;;;2.30;;
12836;SDS011;6485;51.472;5.268;2022-09-16T08:44:51;4.13;;;2.00;;
12836;SDS011;6485;51.472;5.268;2022-09-16T08:47:33;4.80;;;2.23;;
12836;SDS011;6485;51.472;5.268;2022-09-16T08:50:11;2.60;;;1.60;;
12836;SDS011;6485;51.472;5.268;2022-09-16T08:52:44;3.87;;;1.70;;
12836;SDS011;6485;51.472;5.268;2022-09-16T08:55:15;6.20;;;2.00;;
12836;SDS011;6485;51.472;5.268;2022-09-16T08:57:52;4.47;;;1.50;;
12836;SDS011;6485;51.472;5.268;2022-09-16T09:00:23;5.07;;;1.60;;
12836;SDS011;6485;51.472;5.268;2022-09-16T09:02:52;4.33;;;1.60;;
12836;SDS011;6485;51.472;5.268;2022-09-16T09:05:26;3.17;;;1.43;;
12836;SDS011;6485;51.472;5.268;2022-09-16T09:08:04;2.60;;;1.50;;
12836;SDS011;6485;51.472;5.268;2022-09-16T09:10:41;3.87;;;1.57;;
12836;SDS011;6485;51.472;5.268;2022-09-16T09:13:18;6.13;;;1.90;;
12836;SDS011;6485;51.472;5.268;2022-09-16T09:16:04;2.80;;;1.43;;
12836;SDS011;6485;51.472;5.268;2022-09-16T09:18:43;5.60;;;1.50;;
12836;SDS011;6485;51.472;5.268;2022-09-16T09:21:21;1.70;;;1.37;;
12836;SDS011;6485;51.472;5.268;2022-09-16T09:24:02;2.57;;;1.23;;
12836;SDS011;6485;51.472;5.268;2022-09-16T09:26:45;3.33;;;1.30;;
12836;SDS011;6485;51.472;5.268;2022-09-16T09:29:28;2.63;;;1.27;;
12836;SDS011;6485;51.472;5.268;2022-09-16T09:32:15;3.20;;;1.37;;
12836;SDS011;6485;51.472;5.268;2022-09-16T09:34:56;2.10;;;1.50;;
12836;SDS011;6485;51.472;5.268;2022-09-16T09:37:37;1.47;;;1.30;;
12836;SDS011;6485;51.472;5.268;2022-09-16T09:40:22;2.77;;;1.10;;
12836;SDS011;6485;51.472;5.268;2022-09-16T09:43:00;4.33;;;1.30;;
12836;SDS011;6485;51.472;5.268;2022-09-16T09:45:36;2.73;;;1.03;;
12836;SDS011;6485;51.472;5.268;2022-09-16T09:48:10;1.43;;;1.10;;
12836;SDS011;6485;51.472;5.268;2022-09-16T09:50:44;7.57;;;1.30;;
12836;SDS011;6485;51.472;5.268;2022-09-16T09:53:17;5.17;;;1.40;;
12836;SDS011;6485;51.472;5.268;2022-09-16T09:55:51;3.73;;;1.53;;
12836;SDS011;6485;51.472;5.268;2022-09-16T09:58:39;2.70;;;1.53;;
12836;SDS011;6485;51.472;5.268;2022-09-16T10:01:12;2.60;;;1.40;;
12836;SDS011;6485;51.472;5.268;2022-09-16T10:03:41;2.90;;;1.30;;
12836;SDS011;6485;51.472;5.268;2022-09-16T10:06:10;1.37;;;1.23;;
12836;SDS011;6485;51.472;5.268;2022-09-16T10:08:40;3.60;;;1.13;;
12836;SDS011;6485;51.472;5.268;2022-09-16T10:11:14;3.23;;;1.20;;
12836;SDS011;6485;51.472;5.268;2022-09-16T10:13:49;10.10;;;1.60;;
12836;SDS011;6485;51.472;5.268;2022-09-16T10:16:19;3.67;;;1.30;;
12836;SDS011;6485;51.472;5.268;2022-09-16T10:18:55;3.03;;;1.00;;
12836;SDS011;6485;51.472;5.268;2022-09-16T10:21:36;3.03;;;1.20;;
12836;SDS011;6485;51.472;5.268;2022-09-16T10:24:19;3.57;;;1.53;;
12836;SDS011;6485;51.472;5.268;2022-09-16T10:26:57;4.10;;;1.47;;
12836;SDS011;6485;51.472;5.268;2022-09-16T10:29:28;2.90;;;1.27;;
12836;SDS011;6485;51.472;5.268;2022-09-16T10:31:56;3.63;;;1.07;;
12836;SDS011;6485;51.472;5.268;2022-09-16T10:34:32;4.80;;;1.33;;
12836;SDS011;6485;51.472;5.268;2022-09-16T10:37:13;4.93;;;1.20;;
12836;SDS011;6485;51.472;5.268;2022-09-16T10:39:49;4.17;;;1.27;;
12836;SDS011;6485;51.472;5.268;2022-09-16T10:42:21;1.27;;;1.17;;
12836;SDS011;6485;51.472;5.268;2022-09-16T10:45:09;3.90;;;1.53;;
12836;SDS011;6485;51.472;5.268;2022-09-16T10:47:44;4.03;;;1.80;;
12836;SDS011;6485;51.472;5.268;2022-09-16T10:50:16;2.93;;;1.90;;
12836;SDS011;6485;51.472;5.268;2022-09-16T10:52:47;7.40;;;1.57;;
12836;SDS011;6485;51.472;5.268;2022-09-16T10:55:26;1.93;;;1.20;;
12836;SDS011;6485;51.472;5.268;2022-09-16T10:58:07;3.30;;;1.37;;
12836;SDS011;6485;51.472;5.268;2022-09-16T11:00:45;4.53;;;1.23;;
12836;SDS011;6485;51.472;5.268;2022-09-16T11:06:19;5.60;;;1.70;;
12836;SDS011;6485;51.472;5.268;2022-09-16T11:09:04;3.87;;;1.40;;
12836;SDS011;6485;51.472;5.268;2022-09-16T11:11:44;4.37;;;1.23;;
12836;SDS011;6485;51.472;5.268;2022-09-16T11:14:23;3.33;;;1.33;;
12836;SDS011;6485;51.472;5.268;2022-09-16T11:17:07;2.90;;;1.30;;
12836;SDS011;6485;51.472;5.268;2022-09-16T11:19:53;2.33;;;1.40;;
12836;SDS011;6485;51.472;5.268;2022-09-16T11:22:34;5.93;;;1.50;;
12836;SDS011;6485;51.472;5.268;2022-09-16T11:25:21;5.70;;;1.30;;
12836;SDS011;6485;51.472;5.268;2022-09-16T11:27:58;5.77;;;1.50;;
12836;SDS011;6485;51.472;5.268;2022-09-16T11:30:35;2.50;;;1.30;;
12836;SDS011;6485;51.472;5.268;2022-09-16T11:33:16;2.03;;;1.40;;
12836;SDS011;6485;51.472;5.268;2022-09-16T11:36:10;2.57;;;1.17;;
12836;SDS011;6485;51.472;5.268;2022-09-16T11:39:01;1.63;;;1.10;;
12836;SDS011;6485;51.472;5.268;2022-09-16T11:41:47;3.47;;;1.20;;
12836;SDS011;6485;51.472;5.268;2022-09-16T11:44:34;1.17;;;1.00;;
12836;SDS011;6485;51.472;5.268;2022-09-16T11:47:12;7.67;;;1.20;;
12836;SDS011;6485;51.472;5.268;2022-09-16T11:50:02;2.33;;;1.00;;
12836;SDS011;6485;51.472;5.268;2022-09-16T11:52:41;4.33;;;1.17;;
12836;SDS011;6485;51.472;5.268;2022-09-16T11:55:34;3.03;;;1.10;;
12836;SDS011;6485;51.472;5.268;2022-09-16T11:58:17;4.17;;;1.10;;
12836;SDS011;6485;51.472;5.268;2022-09-16T12:00:53;2.93;;;1.00;;
12836;SDS011;6485;51.472;5.268;2022-09-16T12:03:27;3.17;;;1.20;;
12836;SDS011;6485;51.472;5.268;2022-09-16T12:06:04;1.17;;;0.90;;
12836;SDS011;6485;51.472;5.268;2022-09-16T12:08:41;3.87;;;1.70;;
12836;SDS011;6485;51.472;5.268;2022-09-16T12:11:18;3.07;;;1.10;;
12836;SDS011;6485;51.472;5.268;2022-09-16T12:13:49;1.30;;;1.20;;
12836;SDS011;6485;51.472;5.268;2022-09-16T12:16:33;1.70;;;1.03;;
12836;SDS011;6485;51.472;5.268;2022-09-16T12:19:08;0.87;;;0.83;;
12836;SDS011;6485;51.472;5.268;2022-09-16T12:21:42;2.73;;;1.00;;
12836;SDS011;6485;51.472;5.268;2022-09-16T12:24:17;2.43;;;1.00;;
12836;SDS011;6485;51.472;5.268;2022-09-16T12:26:50;3.13;;;1.10;;
12836;SDS011;6485;51.472;5.268;2022-09-16T12:29:25;4.67;;;1.10;;
12836;SDS011;6485;51.472;5.268;2022-09-16T12:31:59;2.53;;;1.30;;
12836;SDS011;6485;51.472;5.268;2022-09-16T12:34:32;3.10;;;1.10;;
12836;SDS011;6485;51.472;5.268;2022-09-16T12:37:11;3.30;;;1.40;;
12836;SDS011;6485;51.472;5.268;2022-09-16T12:39:47;3.70;;;1.10;;
12836;SDS011;6485;51.472;5.268;2022-09-16T12:42:36;1.80;;;1.10;;
12836;SDS011;6485;51.472;5.268;2022-09-16T12:45:28;3.40;;;0.90;;
12836;SDS011;6485;51.472;5.268;2022-09-16T12:48:12;2.50;;;0.90;;
12836;SDS011;6485;51.472;5.268;2022-09-16T12:50:59;1.00;;;0.60;;
12836;SDS011;6485;51.472;5.268;2022-09-16T12:57:09;1.77;;;0.83;;
12836;SDS011;6485;51.472;5.268;2022-09-16T12:59:51;2.87;;;0.80;;
12836;SDS011;6485;51.472;5.268;2022-09-16T13:02:39;2.30;;;0.90;;
12836;SDS011;6485;51.472;5.268;2022-09-16T13:05:15;2.53;;;1.07;;
12836;SDS011;6485;51.472;5.268;2022-09-16T13:07:49;5.67;;;1.30;;
12836;SDS011;6485;51.472;5.268;2022-09-16T13:10:22;1.50;;;1.40;;
12836;SDS011;6485;51.472;5.268;2022-09-16T13:13:17;2.27;;;1.30;;
12836;SDS011;6485;51.472;5.268;2022-09-16T13:15:53;4.87;;;1.10;;
12836;SDS011;6485;51.472;5.268;2022-09-16T13:18:23;1.60;;;1.50;;
12836;SDS011;6485;51.472;5.268;2022-09-16T13:21:04;3.60;;;1.47;;
12836;SDS011;6485;51.472;5.268;2022-09-16T13:23:39;2.93;;;1.13;;
12836;SDS011;6485;51.472;5.268;2022-09-16T13:26:11;7.43;;;1.47;;
12836;SDS011;6485;51.472;5.268;2022-09-16T13:28:40;5.43;;;2.10;;
12836;SDS011;6485;51.472;5.268;2022-09-16T13:31:14;2.87;;;1.70;;
12836;SDS011;6485;51.472;5.268;2022-09-16T13:33:44;3.83;;;1.23;;
12836;SDS011;6485;51.472;5.268;2022-09-16T13:36:29;3.07;;;1.33;;
12836;SDS011;6485;51.472;5.268;2022-09-16T13:38:59;5.67;;;1.50;;
12836;SDS011;6485;51.472;5.268;2022-09-16T13:41:31;5.13;;;1.40;;
12836;SDS011;6485;51.472;5.268;2022-09-16T13:44:03;6.67;;;1.93;;
12836;SDS011;6485;51.472;5.268;2022-09-16T13:47:05;6.00;;;1.90;;
12836;SDS011;6485;51.472;5.268;2022-09-16T13:49:42;4.80;;;1.73;;
12836;SDS011;6485;51.472;5.268;2022-09-16T13:52:16;4.93;;;1.67;;
12836;SDS011;6485;51.472;5.268;2022-09-16T13:54:48;4.23;;;1.73;;
12836;SDS011;6485;51.472;5.268;2022-09-16T13:57:42;3.90;;;1.70;;
12836;SDS011;6485;51.472;5.268;2022-09-16T14:00:20;3.23;;;1.80;;
12836;SDS011;6485;51.472;5.268;2022-09-16T14:02:55;6.43;;;2.30;;
12836;SDS011;6485;51.472;5.268;2022-09-16T14:08:53;6.27;;;4.00;;
12836;SDS011;6485;51.472;5.268;2022-09-16T14:11:29;8.30;;;3.60;;
12836;SDS011;6485;51.472;5.268;2022-09-16T14:14:05;8.93;;;4.27;;
12836;SDS011;6485;51.472;5.268;2022-09-16T14:16:57;6.33;;;3.53;;
12836;SDS011;6485;51.472;5.268;2022-09-16T14:19:30;7.33;;;3.57;;
12836;SDS011;6485;51.472;5.268;2022-09-16T14:22:03;7.23;;;2.43;;
12836;SDS011;6485;51.472;5.268;2022-09-16T14:24:33;6.63;;;2.70;;
12836;SDS011;6485;51.472;5.268;2022-09-16T14:27:04;3.80;;;1.70;;
12836;SDS011;6485;51.472;5.268;2022-09-16T14:29:53;4.60;;;1.80;;
12836;SDS011;6485;51.472;5.268;2022-09-16T14:32:23;1.53;;;1.43;;
12836;SDS011;6485;51.472;5.268;2022-09-16T14:34:55;2.90;;;1.63;;
12836;SDS011;6485;51.472;5.268;2022-09-16T14:37:27;1.60;;;1.50;;
12836;SDS011;6485;51.472;5.268;2022-09-16T14:40:01;4.27;;;1.80;;
12836;SDS011;6485;51.472;5.268;2022-09-16T14:42:31;5.47;;;1.87;;
12836;SDS011;6485;51.472;5.268;2022-09-16T14:45:01;4.97;;;1.90;;
12836;SDS011;6485;51.472;5.268;2022-09-16T14:47:32;5.57;;;2.20;;
12836;SDS011;6485;51.472;5.268;2022-09-16T14:50:18;3.27;;;2.30;;
12836;SDS011;6485;51.472;5.268;2022-09-16T14:52:52;4.13;;;1.90;;
12836;SDS011;6485;51.472;5.268;2022-09-16T14:55:23;5.30;;;1.73;;
12836;SDS011;6485;51.472;5.268;2022-09-16T14:57:52;3.70;;;1.90;;
12836;SDS011;6485;51.472;5.268;2022-09-16T15:00:23;4.83;;;1.80;;
12836;SDS011;6485;51.472;5.268;2022-09-16T15:02:55;2.37;;;1.40;;
12836;SDS011;6485;51.472;5.268;2022-09-16T15:05:28;4.80;;;1.30;;
12836;SDS011;6485;51.472;5.268;2022-09-16T15:08:03;2.77;;;1.63;;
12836;SDS011;6485;51.472;5.268;2022-09-16T15:11:03;5.13;;;1.60;;
12836;SDS011;6485;51.472;5.268;2022-09-16T15:14:01;5.07;;;1.90;;
12836;SDS011;6485;51.472;5.268;2022-09-16T15:16:34;4.40;;;1.50;;
12836;SDS011;6485;51.472;5.268;2022-09-16T15:19:13;4.63;;;1.80;;
12836;SDS011;6485;51.472;5.268;2022-09-16T15:21:46;4.23;;;1.70;;
12836;SDS011;6485;51.472;5.268;2022-09-16T15:24:21;2.63;;;1.57;;
12836;SDS011;6485;51.472;5.268;2022-09-16T15:26:54;2.37;;;1.00;;
12836;SDS011;6485;51.472;5.268;2022-09-16T15:29:27;3.10;;;1.43;;
12836;SDS011;6485;51.472;5.268;2022-09-16T15:32:18;4.77;;;1.57;;
12836;SDS011;6485;51.472;5.268;2022-09-16T15:35:10;4.67;;;2.00;;
12836;SDS011;6485;51.472;5.268;2022-09-16T15:37:48;2.83;;;1.60;;
12836;SDS011;6485;51.472;5.268;2022-09-16T15:40:21;4.33;;;2.30;;
12836;SDS011;6485;51.472;5.268;2022-09-16T15:43:02;3.50;;;2.23;;
12836;SDS011;6485;51.472;5.268;2022-09-16T15:45:37;3.50;;;1.80;;
12836;SDS011;6485;51.472;5.268;2022-09-16T15:48:10;5.77;;;1.50;;
12836;SDS011;6485;51.472;5.268;2022-09-16T15:50:43;4.40;;;1.30;;
12836;SDS011;6485;51.472;5.268;2022-09-16T15:53:15;2.50;;;1.27;;